Time;durP1;ratioP1;P1;durP2;ratioP2;P2;SDS_P1;SDS_P2;PMS_P1;PMS_P2;Temp;Humidity;BMP_temperature;BMP_pressure;BME280_temperature;BME280_humidity;BME280_pressure;Samples;Min_cycle;Max_cycle;Signal;HPM_P1;HPM_P2
2022/05/30 00:02:21;;;;;;;0.50;0.50;;;;;;;;;;4978784;28;20196;-83
2022/05/30 00:04:51;;;;;;;0.70;0.70;;;;;;;;;;4978865;28;20208;-82
2022/05/30 00:07:19;;;;;;;0.50;0.50;;;;;;;;;;4962738;28;20424;-83
2022/05/30 00:09:50;;;;;;;0.50;0.50;;;;;;;;;;4967835;28;20227;-83
2022/05/30 00:12:18;;;;;;;0.80;0.80;;;;;;;;;;4981874;28;20205;-83
2022/05/30 00:14:47;;;;;;;0.50;0.50;;;;;;;;;;4976590;28;20193;-83
2022/05/30 00:17:15;;;;;;;0.60;0.60;;;;;;;;;;4959772;28;20220;-83
2022/05/30 00:19:44;;;;;;;0.60;0.60;;;;;;;;;;4962692;28;20221;-83
2022/05/30 00:22:14;;;;;;;0.50;0.50;;;;;;;;;;4976603;28;20197;-83
2022/05/30 00:24:44;;;;;;;0.50;0.50;;;;;;;;;;4973061;28;20260;-83
2022/05/30 00:27:13;;;;;;;0.50;0.50;;;;;;;;;;4956436;28;20213;-83
2022/05/30 00:29:42;;;;;;;0.50;0.50;;;;;;;;;;5003516;28;20205;-84
2022/05/30 00:32:11;;;;;;;0.50;0.50;;;;;;;;;;4956165;28;20216;-84
2022/05/30 00:34:39;;;;;;;0.53;0.53;;;;;;;;;;4956181;28;20193;-83
2022/05/30 00:37:08;;;;;;;0.50;0.50;;;;;;;;;;4976230;28;20205;-83
2022/05/30 00:39:36;;;;;;;1.47;1.47;;;;;;;;;;4990981;28;20217;-83
2022/05/30 00:42:09;;;;;;;0.50;0.50;;;;;;;;;;4959310;28;20201;-83
2022/05/30 00:44:38;;;;;;;0.60;0.60;;;;;;;;;;4956499;28;20225;-83
2022/05/30 00:47:07;;;;;;;0.60;0.60;;;;;;;;;;4959327;28;20204;-83
2022/05/30 00:49:36;;;;;;;0.50;0.50;;;;;;;;;;4977141;28;20290;-83
2022/05/30 00:52:06;;;;;;;1.13;1.00;;;;;;;;;;4978026;28;20219;-84
2022/05/30 00:54:37;;;;;;;0.97;0.97;;;;;;;;;;4995052;28;20204;-83
2022/05/30 00:57:20;;;;;;;0.60;0.60;;;;;;;;;;4977739;28;20203;-84
2022/05/30 00:59:51;;;;;;;0.57;0.57;;;;;;;;;;4978319;28;20215;-84
2022/05/30 01:02:20;;;;;;;0.60;0.60;;;;;;;;;;4978027;28;20208;-83
2022/05/30 01:07:37;;;;;;;0.60;0.60;;;;;;;;;;4977963;28;20208;-83
2022/05/30 01:10:07;;;;;;;0.60;0.60;;;;;;;;;;4978059;28;20208;-84
2022/05/30 01:12:38;;;;;;;0.60;0.60;;;;;;;;;;4995049;28;20204;-83
2022/05/30 01:15:09;;;;;;;0.50;0.50;;;;;;;;;;4995107;28;20204;-84
2022/05/30 01:17:40;;;;;;;0.60;0.60;;;;;;;;;;4978126;28;20299;-84
2022/05/30 01:20:13;;;;;;;0.60;0.60;;;;;;;;;;4995109;28;20251;-84
2022/05/30 01:22:56;;;;;;;0.67;0.67;;;;;;;;;;4978280;28;20212;-83
2022/05/30 01:25:45;;;;;;;0.60;0.60;;;;;;;;;;4995232;28;20200;-83
2022/05/30 01:28:24;;;;;;;0.60;0.60;;;;;;;;;;4964763;28;20211;-84
2022/05/30 01:30:53;;;;;;;0.60;0.60;;;;;;;;;;4976800;28;20220;-84
2022/05/30 01:33:21;;;;;;;0.60;0.60;;;;;;;;;;4977520;28;20200;-84
2022/05/30 01:35:50;;;;;;;0.60;0.60;;;;;;;;;;4977285;28;20211;-83
2022/05/30 01:38:20;;;;;;;0.97;0.97;;;;;;;;;;4977715;28;20196;-83
2022/05/30 01:40:49;;;;;;;0.60;0.60;;;;;;;;;;5010168;28;20227;-84
2022/05/30 01:43:17;;;;;;;0.50;0.50;;;;;;;;;;4977427;28;20219;-84
2022/05/30 01:45:47;;;;;;;0.60;0.60;;;;;;;;;;5010039;28;20263;-84
2022/05/30 01:48:15;;;;;;;0.60;0.60;;;;;;;;;;4976796;28;20232;-84
2022/05/30 01:50:45;;;;;;;1.30;1.20;;;;;;;;;;4977250;28;20199;-84
2022/05/30 01:53:13;;;;;;;0.57;0.57;;;;;;;;;;4977643;28;20210;-84
2022/05/30 01:55:42;;;;;;;0.60;0.60;;;;;;;;;;4977328;28;20215;-83
2022/05/30 01:58:10;;;;;;;0.60;0.60;;;;;;;;;;5009745;28;20289;-84
2022/05/30 02:00:38;;;;;;;0.83;0.83;;;;;;;;;;4977229;28;20211;-84
2022/05/30 02:03:08;;;;;;;0.60;0.60;;;;;;;;;;4976974;28;20197;-83
2022/05/30 02:05:37;;;;;;;0.70;0.70;;;;;;;;;;4994275;28;20211;-83
2022/05/30 02:08:05;;;;;;;0.70;0.70;;;;;;;;;;4994259;28;20204;-83
2022/05/30 02:10:34;;;;;;;2.00;1.90;;;;;;;;;;5009325;28;20204;-83
2022/05/30 02:13:03;;;;;;;0.70;0.70;;;;;;;;;;4976977;28;20215;-83
2022/05/30 02:17:00;;;;;;;0.63;0.63;;;;;;;;;;4976526;28;20283;-82
2022/05/30 02:18:20;;;;;;;0.60;0.60;;;;;;;;;;4976705;28;20231;-83
2022/05/30 02:20:49;;;;;;;0.90;0.90;;;;;;;;;;4976732;28;20322;-83
2022/05/30 02:23:18;;;;;;;0.60;0.60;;;;;;;;;;4977190;28;20204;-83
2022/05/30 02:25:46;;;;;;;1.17;1.17;;;;;;;;;;4976781;28;20299;-83
2022/05/30 02:28:15;;;;;;;0.80;0.80;;;;;;;;;;4994391;28;20208;-83
2022/05/30 02:30:43;;;;;;;0.70;0.70;;;;;;;;;;4994085;28;20271;-82
2022/05/30 02:38:45;;;;;;;0.60;0.60;;;;;;;;;;4994544;28;20196;-82
2022/05/30 02:41:14;;;;;;;0.60;0.60;;;;;;;;;;4993815;28;20227;-83
2022/05/30 02:43:42;;;;;;;0.50;0.50;;;;;;;;;;4977220;28;20260;-83
2022/05/30 02:46:11;;;;;;;0.80;0.80;;;;;;;;;;4980669;28;20200;-83
2022/05/30 02:48:39;;;;;;;0.60;0.60;;;;;;;;;;4991299;28;20229;-82
2022/05/30 02:51:09;;;;;;;0.60;0.60;;;;;;;;;;4995477;28;20189;-81
2022/05/30 02:53:38;;;;;;;0.60;0.60;;;;;;;;;;4952926;28;20263;-83
2022/05/30 02:56:12;;;;;;;0.60;0.60;;;;;;;;;;4974852;28;20204;-83
2022/05/30 02:58:42;;;;;;;0.90;0.90;;;;;;;;;;4973009;28;20197;-83
2022/05/30 03:01:11;;;;;;;0.70;0.70;;;;;;;;;;5000482;28;20223;-83
2022/05/30 03:03:40;;;;;;;0.50;0.50;;;;;;;;;;4966579;28;20205;-83
2022/05/30 03:06:09;;;;;;;0.60;0.60;;;;;;;;;;4999371;28;20202;-83
2022/05/30 03:08:38;;;;;;;0.60;0.60;;;;;;;;;;4979022;28;20211;-83
2022/05/30 03:11:06;;;;;;;1.43;1.33;;;;;;;;;;4978692;28;20233;-83
2022/05/30 03:13:35;;;;;;;0.50;0.50;;;;;;;;;;4957690;28;20210;-83
2022/05/30 03:16:03;;;;;;;0.50;0.50;;;;;;;;;;4990600;28;20210;-83
2022/05/30 03:18:32;;;;;;;0.60;0.60;;;;;;;;;;4987664;28;20284;-83
2022/05/30 03:21:00;;;;;;;0.70;0.70;;;;;;;;;;4980844;28;20197;-83
2022/05/30 03:23:30;;;;;;;0.53;0.53;;;;;;;;;;4993114;28;20212;-83
2022/05/30 03:25:58;;;;;;;0.50;0.50;;;;;;;;;;4990134;28;20219;-83
2022/05/30 03:28:27;;;;;;;0.50;0.50;;;;;;;;;;4960184;28;20208;-83
2022/05/30 03:30:55;;;;;;;0.60;0.60;;;;;;;;;;4960332;28;20222;-83
2022/05/30 03:33:24;;;;;;;0.93;0.93;;;;;;;;;;4960512;28;20239;-83
2022/05/30 03:35:52;;;;;;;1.60;1.60;;;;;;;;;;4959886;28;20215;-83
2022/05/30 03:38:21;;;;;;;0.50;0.50;;;;;;;;;;4996870;28;20207;-83
2022/05/30 03:40:50;;;;;;;0.50;0.50;;;;;;;;;;4968206;28;20213;-83
2022/05/30 03:43:19;;;;;;;0.70;0.70;;;;;;;;;;4956769;28;20245;-83
2022/05/30 03:45:47;;;;;;;0.60;0.60;;;;;;;;;;4947906;29;20214;-83
2022/05/30 03:48:16;;;;;;;1.43;1.43;;;;;;;;;;4963120;28;20245;-83
2022/05/30 03:50:45;;;;;;;1.40;1.40;;;;;;;;;;5011562;28;20215;-83
2022/05/30 03:53:14;;;;;;;0.60;0.60;;;;;;;;;;5011451;28;20196;-83
2022/05/30 03:55:44;;;;;;;0.60;0.60;;;;;;;;;;4978790;28;20189;-83
2022/05/30 03:58:14;;;;;;;0.60;0.60;;;;;;;;;;4979257;28;20295;-83
2022/05/30 04:00:44;;;;;;;1.07;1.07;;;;;;;;;;5011678;28;20219;-83
2022/05/30 04:03:13;;;;;;;2.37;1.90;;;;;;;;;;4978924;28;20224;-83
2022/05/30 04:05:41;;;;;;;0.70;0.70;;;;;;;;;;4996412;28;20256;-83
2022/05/30 04:08:10;;;;;;;0.60;0.60;;;;;;;;;;4979075;28;20215;-83
2022/05/30 04:10:41;;;;;;;0.60;0.60;;;;;;;;;;4978800;28;20207;-82
2022/05/30 04:13:11;;;;;;;1.07;0.83;;;;;;;;;;4996679;28;20289;-83
2022/05/30 04:15:40;;;;;;;0.60;0.60;;;;;;;;;;5011385;28;20267;-80
2022/05/30 04:18:09;;;;;;;0.60;0.60;;;;;;;;;;4995824;28;20237;-83
2022/05/30 04:20:37;;;;;;;1.63;1.13;;;;;;;;;;4977982;28;20238;-83
2022/05/30 04:23:05;;;;;;;2.10;1.90;;;;;;;;;;4996118;28;20270;-83
2022/05/30 04:25:34;;;;;;;0.70;0.70;;;;;;;;;;5010865;28;20258;-83
2022/05/30 04:28:03;;;;;;;1.33;1.23;;;;;;;;;;4979204;28;20197;-83
2022/05/30 04:30:31;;;;;;;1.00;1.00;;;;;;;;;;4978495;28;20208;-83
2022/05/30 04:33:01;;;;;;;0.60;0.60;;;;;;;;;;4978801;28;20284;-83
2022/05/30 04:35:29;;;;;;;2.53;2.33;;;;;;;;;;4978514;28;20235;-83
2022/05/30 04:37:58;;;;;;;3.00;2.33;;;;;;;;;;4978540;28;20204;-83
2022/05/30 04:40:26;;;;;;;2.53;2.07;;;;;;;;;;4978412;28;20200;-83
2022/05/30 04:42:57;;;;;;;1.53;1.43;;;;;;;;;;4978063;28;20222;-83
2022/05/30 04:45:25;;;;;;;0.60;0.60;;;;;;;;;;4978259;28;20304;-83
2022/05/30 04:47:54;;;;;;;1.00;1.00;;;;;;;;;;4995039;28;20240;-83
2022/05/30 04:50:24;;;;;;;2.63;1.70;;;;;;;;;;4978700;28;20242;-82
2022/05/30 04:52:52;;;;;;;3.37;1.67;;;;;;;;;;4978192;28;20206;-82
2022/05/30 04:55:21;;;;;;;1.70;1.43;;;;;;;;;;4978217;28;20201;-83
2022/05/30 04:57:50;;;;;;;1.20;1.07;;;;;;;;;;4978190;28;20195;-82
2022/05/30 05:00:20;;;;;;;0.60;0.60;;;;;;;;;;4994890;28;20215;-83
2022/05/30 05:02:48;;;;;;;0.90;0.90;;;;;;;;;;4978207;28;20224;-82
2022/05/30 05:05:17;;;;;;;1.53;1.43;;;;;;;;;;5009998;28;20211;-83
2022/05/30 05:07:50;;;;;;;0.87;0.87;;;;;;;;;;4978366;28;20207;-83
2022/05/30 05:10:44;;;;;;;5.93;1.90;;;;;;;;;;4978348;28;20208;-82
2022/05/30 05:13:12;;;;;;;0.90;0.90;;;;;;;;;;5011150;28;20196;-82
2022/05/30 05:15:41;;;;;;;1.90;0.93;;;;;;;;;;4995299;28;20231;-83
2022/05/30 05:18:09;;;;;;;0.60;0.60;;;;;;;;;;4977899;28;20208;-83
2022/05/30 05:20:38;;;;;;;1.80;1.27;;;;;;;;;;4977998;28;20205;-82
2022/05/30 05:23:08;;;;;;;2.73;1.23;;;;;;;;;;4977570;28;20224;-82
2022/05/30 05:25:38;;;;;;;3.27;2.40;;;;;;;;;;4978170;28;20220;-83
2022/05/30 05:28:07;;;;;;;1.33;1.23;;;;;;;;;;4977858;28;20230;-83
2022/05/30 05:30:35;;;;;;;5.70;1.43;;;;;;;;;;4978538;28;20222;-83
2022/05/30 05:33:04;;;;;;;1.90;1.33;;;;;;;;;;4964899;28;20216;-83
2022/05/30 05:35:33;;;;;;;1.03;0.97;;;;;;;;;;5010644;28;20197;-82
2022/05/30 05:38:01;;;;;;;0.67;0.67;;;;;;;;;;4977746;28;20209;-83
2022/05/30 05:40:31;;;;;;;0.50;0.50;;;;;;;;;;4977602;28;20251;-82
2022/05/30 05:43:00;;;;;;;0.60;0.60;;;;;;;;;;4977410;28;20239;-82
2022/05/30 05:45:29;;;;;;;0.80;0.80;;;;;;;;;;4977566;28;20341;-82
2022/05/30 05:47:57;;;;;;;0.50;0.50;;;;;;;;;;4977232;28;20248;-83
2022/05/30 05:50:26;;;;;;;0.60;0.60;;;;;;;;;;4977179;28;20286;-82
2022/05/30 05:52:55;;;;;;;0.50;0.50;;;;;;;;;;4977183;28;20204;-81
2022/05/30 05:55:23;;;;;;;0.60;0.60;;;;;;;;;;4977073;28;20204;-81
2022/05/30 05:57:53;;;;;;;0.50;0.50;;;;;;;;;;4977009;28;20215;-82
2022/05/30 06:00:22;;;;;;;0.83;0.83;;;;;;;;;;4977117;28;20200;-81
2022/05/30 06:02:50;;;;;;;2.53;0.90;;;;;;;;;;4976928;28;20223;-82
2022/05/30 06:05:19;;;;;;;0.90;0.90;;;;;;;;;;4977509;28;20204;-82
2022/05/30 06:07:47;;;;;;;0.73;0.73;;;;;;;;;;4977241;28;20204;-81
2022/05/30 06:10:16;;;;;;;1.33;0.87;;;;;;;;;;4977032;28;20198;-81
2022/05/30 06:12:45;;;;;;;1.57;1.10;;;;;;;;;;4977474;28;20207;-79
2022/05/30 06:15:16;;;;;;;0.63;0.63;;;;;;;;;;4994379;28;20210;-79
2022/05/30 06:17:45;;;;;;;0.57;0.57;;;;;;;;;;4975656;28;20205;-80
2022/05/30 06:20:15;;;;;;;0.50;0.50;;;;;;;;;;4973493;28;20197;-80
2022/05/30 06:22:44;;;;;;;1.40;0.70;;;;;;;;;;4997785;28;20204;-80
2022/05/30 06:25:12;;;;;;;0.90;0.90;;;;;;;;;;4998126;28;20288;-80
2022/05/30 06:27:41;;;;;;;1.00;1.00;;;;;;;;;;4980844;28;20212;-80
2022/05/30 06:30:10;;;;;;;0.87;0.87;;;;;;;;;;4981273;28;20213;-79
2022/05/30 06:32:40;;;;;;;0.60;0.60;;;;;;;;;;4997134;28;20209;-80
2022/05/30 06:35:08;;;;;;;0.50;0.50;;;;;;;;;;4998489;28;20216;-80
2022/05/30 06:37:37;;;;;;;0.60;0.60;;;;;;;;;;4979367;28;20213;-80
2022/05/30 06:40:06;;;;;;;0.67;0.67;;;;;;;;;;4981399;28;20241;-80
2022/05/30 06:42:34;;;;;;;0.47;0.47;;;;;;;;;;4981204;28;20199;-81
2022/05/30 06:45:03;;;;;;;0.90;0.90;;;;;;;;;;4997953;28;20222;-80
2022/05/30 06:47:31;;;;;;;0.80;0.80;;;;;;;;;;4980028;28;20240;-80
2022/05/30 06:50:01;;;;;;;0.60;0.60;;;;;;;;;;4979909;28;20206;-80
2022/05/30 06:52:30;;;;;;;1.00;1.00;;;;;;;;;;5012828;28;20214;-81
2022/05/30 06:55:00;;;;;;;0.70;0.70;;;;;;;;;;4980267;28;20210;-80
2022/05/30 07:00:18;;;;;;;0.50;0.50;;;;;;;;;;4976482;28;20210;-79
2022/05/30 07:02:47;;;;;;;0.50;0.50;;;;;;;;;;4979937;28;20273;-80
2022/05/30 07:05:19;;;;;;;0.50;0.50;;;;;;;;;;4977888;28;20219;-80
2022/05/30 07:07:47;;;;;;;0.80;0.80;;;;;;;;;;4980280;28;20208;-80
2022/05/30 07:10:16;;;;;;;0.50;0.50;;;;;;;;;;4980030;28;20210;-80
2022/05/30 07:12:45;;;;;;;0.60;0.60;;;;;;;;;;4980013;28;20207;-80
2022/05/30 07:15:17;;;;;;;6.80;1.00;;;;;;;;;;4979444;28;20204;-79
2022/05/30 07:17:53;;;;;;;0.70;0.70;;;;;;;;;;4979560;28;20238;-78
2022/05/30 07:20:26;;;;;;;0.50;0.50;;;;;;;;;;4979500;28;20203;-79
2022/05/30 07:22:55;;;;;;;2.10;0.70;;;;;;;;;;4966880;28;20215;-80
2022/05/30 07:25:24;;;;;;;3.43;0.60;;;;;;;;;;4979348;28;20219;-80
2022/05/30 07:27:54;;;;;;;0.60;0.60;;;;;;;;;;4976000;28;20208;-79
2022/05/30 07:30:30;;;;;;;0.63;0.63;;;;;;;;;;4972263;28;20218;-80
2022/05/30 07:32:59;;;;;;;0.60;0.60;;;;;;;;;;4979056;28;20216;-80
2022/05/30 07:35:43;;;;;;;0.70;0.70;;;;;;;;;;4979223;28;20203;-80
2022/05/30 07:38:17;;;;;;;0.50;0.50;;;;;;;;;;4979233;28;20211;-80
2022/05/30 07:40:46;;;;;;;0.50;0.50;;;;;;;;;;4979214;28;20215;-79
2022/05/30 07:43:17;;;;;;;1.17;1.17;;;;;;;;;;4981686;28;20326;-79
2022/05/30 07:45:52;;;;;;;0.50;0.50;;;;;;;;;;4978012;28;20235;-79
2022/05/30 07:48:26;;;;;;;1.80;0.70;;;;;;;;;;5008851;28;20239;-79
2022/05/30 07:51:04;;;;;;;2.00;0.70;;;;;;;;;;4976742;28;20204;-81
2022/05/30 07:53:33;;;;;;;3.30;0.67;;;;;;;;;;4968551;28;20256;-80
2022/05/30 07:56:14;;;;;;;0.53;0.53;;;;;;;;;;4976687;28;20212;-80
2022/05/30 07:58:47;;;;;;;0.70;0.70;;;;;;;;;;4970766;28;20204;-81
2022/05/30 08:01:21;;;;;;;3.13;1.10;;;;;;;;;;4968430;28;20208;-81
2022/05/30 08:04:02;;;;;;;0.50;0.50;;;;;;;;;;4992700;28;20219;-80
2022/05/30 08:06:35;;;;;;;0.60;0.60;;;;;;;;;;4980679;28;20302;-79
2022/05/30 08:09:04;;;;;;;0.80;0.80;;;;;;;;;;4970495;28;20530;-80
2022/05/30 08:11:34;;;;;;;0.83;0.60;;;;;;;;;;4967126;28;20200;-79
2022/05/30 08:14:16;;;;;;;0.60;0.60;;;;;;;;;;4970906;28;20199;-80
2022/05/30 08:16:47;;;;;;;0.50;0.50;;;;;;;;;;4974441;28;20225;-79
2022/05/30 08:19:22;;;;;;;1.00;1.00;;;;;;;;;;4975130;28;20231;-79
2022/05/30 08:22:13;;;;;;;0.87;0.70;;;;;;;;;;4973605;28;20232;-79
2022/05/30 08:24:43;;;;;;;0.50;0.50;;;;;;;;;;4972952;28;20221;-79
2022/05/30 08:27:15;;;;;;;1.93;0.90;;;;;;;;;;4967250;28;20199;-80
2022/05/30 08:30:00;;;;;;;0.70;0.70;;;;;;;;;;4972113;28;20211;-83
2022/05/30 08:32:37;;;;;;;0.80;0.80;;;;;;;;;;4973016;28;20231;-79
2022/05/30 08:35:22;;;;;;;0.50;0.50;;;;;;;;;;4973676;28;20202;-79
2022/05/30 08:38:02;;;;;;;0.40;0.40;;;;;;;;;;4968717;28;20326;-79
2022/05/30 08:43:26;;;;;;;0.50;0.50;;;;;;;;;;5001781;28;20303;-82
2022/05/30 08:46:01;;;;;;;0.60;0.60;;;;;;;;;;4982115;28;20220;-77
2022/05/30 08:48:41;;;;;;;0.70;0.70;;;;;;;;;;4981931;28;20262;-79
2022/05/30 08:51:31;;;;;;;2.43;1.00;;;;;;;;;;4971986;28;20243;-82
2022/05/30 08:54:40;;;;;;;;;;;;;;;;;;;;;
2022/05/30 08:57:23;;;;;;;0.60;0.60;;;;;;;;;;4967927;28;20207;-81
2022/05/30 09:00:08;;;;;;;0.93;0.93;;;;;;;;;;4999047;28;20210;-80
2022/05/30 09:03:16;;;;;;;0.50;0.50;;;;;;;;;;4985013;28;20266;-83
2022/05/30 09:06:24;;;;;;;0.50;0.50;;;;;;;;;;4960888;28;20232;-82
2022/05/30 09:09:04;;;;;;;0.60;0.60;;;;;;;;;;4971297;28;20221;-80
2022/05/30 09:11:49;;;;;;;0.40;0.40;;;;;;;;;;4971068;28;20215;-83
2022/05/30 09:14:57;;;;;;;0.50;0.50;;;;;;;;;;4974057;28;20210;-80
2022/05/30 09:18:18;;;;;;;0.40;0.40;;;;;;;;;;4964758;28;20209;-81
2022/05/30 09:21:02;;;;;;;0.60;0.60;;;;;;;;;;4964639;28;20274;-81
2022/05/30 09:24:04;;;;;;;0.60;0.60;;;;;;;;;;4987894;28;20274;-82
2022/05/30 09:26:48;;;;;;;3.70;0.90;;;;;;;;;;4980557;28;20257;-81
2022/05/30 09:29:57;;;;;;;0.67;0.67;;;;;;;;;;4966857;28;20215;-81
2022/05/30 09:32:38;;;;;;;1.50;0.77;;;;;;;;;;4967660;28;20207;-80
2022/05/30 09:35:30;;;;;;;1.03;0.93;;;;;;;;;;4983000;28;20208;-80
2022/05/30 09:38:15;;;;;;;1.17;0.70;;;;;;;;;;4961051;28;20211;-82
2022/05/30 09:40:52;;;;;;;0.60;0.60;;;;;;;;;;4984489;28;20211;-80
2022/05/30 09:43:43;;;;;;;0.87;0.87;;;;;;;;;;4982194;28;20227;-81
2022/05/30 09:46:33;;;;;;;1.30;0.70;;;;;;;;;;4966302;28;20227;-81
2022/05/30 09:49:31;;;;;;;0.50;0.50;;;;;;;;;;4963286;28;20242;-81
2022/05/30 09:52:22;;;;;;;0.90;0.90;;;;;;;;;;4967280;28;20227;-81
2022/05/30 09:54:58;;;;;;;3.13;1.00;;;;;;;;;;5003085;28;20214;-81
2022/05/30 09:57:36;;;;;;;0.50;0.50;;;;;;;;;;4970106;28;20297;-81
2022/05/30 10:00:21;;;;;;;5.53;0.60;;;;;;;;;;4967538;28;20281;-82
2022/05/30 10:03:07;;;;;;;1.67;1.23;;;;;;;;;;4965394;28;20282;-79
2022/05/30 10:05:51;;;;;;;0.80;0.80;;;;;;;;;;4980815;28;20228;-80
2022/05/30 10:08:27;;;;;;;0.60;0.60;;;;;;;;;;4984257;28;20212;-79
2022/05/30 10:11:01;;;;;;;0.50;0.50;;;;;;;;;;4962476;28;20212;-81
2022/05/30 10:13:39;;;;;;;4.23;0.70;;;;;;;;;;5003064;28;20212;-78
2022/05/30 10:16:30;;;;;;;0.37;0.37;;;;;;;;;;4965871;28;20208;-81
2022/05/30 10:19:18;;;;;;;0.73;0.73;;;;;;;;;;4992959;28;20214;-81
2022/05/30 10:28:16;;;;;;;2.47;1.83;;;;;;;;;;4967613;28;20203;-80
2022/05/30 10:30:53;;;;;;;2.20;0.70;;;;;;;;;;4984307;28;20206;-79
2022/05/30 10:33:32;;;;;;;1.03;0.87;;;;;;;;;;4967485;28;20227;-82
2022/05/30 10:36:12;;;;;;;0.93;0.53;;;;;;;;;;4980730;28;20298;-82
2022/05/30 10:41:52;;;;;;;0.40;0.40;;;;;;;;;;4965253;28;20223;-82
2022/05/30 10:44:28;;;;;;;0.43;0.43;;;;;;;;;;4965482;28;20261;-83
2022/05/30 10:47:30;;;;;;;0.50;0.50;;;;;;;;;;4965537;28;20240;-83
2022/05/30 10:50:42;;;;;;;3.60;0.87;;;;;;;;;;4947285;28;20225;-80
2022/05/30 10:53:20;;;;;;;0.50;0.50;;;;;;;;;;4949479;28;20211;-79
2022/05/30 10:55:51;;;;;;;0.60;0.60;;;;;;;;;;4977722;28;20196;-79
2022/05/30 10:58:24;;;;;;;0.30;0.30;;;;;;;;;;4982288;28;20300;-82
2022/05/30 11:00:53;;;;;;;0.30;0.30;;;;;;;;;;4966425;28;20209;-80
2022/05/30 11:03:29;;;;;;;0.70;0.70;;;;;;;;;;4950794;28;20235;-81
2022/05/30 11:06:10;;;;;;;0.57;0.50;;;;;;;;;;4944124;28;20243;-79
2022/05/30 11:08:45;;;;;;;0.50;0.50;;;;;;;;;;4968651;28;20204;-80
2022/05/30 11:11:19;;;;;;;1.90;1.03;;;;;;;;;;4953140;28;20232;-82
2022/05/30 11:13:56;;;;;;;1.23;1.13;;;;;;;;;;4951949;28;20212;-81
2022/05/30 11:16:37;;;;;;;1.07;1.07;;;;;;;;;;4949367;28;20217;-83
2022/05/30 11:19:10;;;;;;;2.43;0.80;;;;;;;;;;4948679;28;20223;-82
2022/05/30 11:21:47;;;;;;;0.47;0.47;;;;;;;;;;4983952;28;20207;-83
2022/05/30 11:24:24;;;;;;;0.60;0.60;;;;;;;;;;4953439;28;20303;-80
2022/05/30 11:27:02;;;;;;;0.50;0.50;;;;;;;;;;4950689;28;20270;-81
2022/05/30 11:29:56;;;;;;;0.47;0.47;;;;;;;;;;4952799;28;20212;-82
2022/05/30 11:32:35;;;;;;;0.73;0.70;;;;;;;;;;4949109;28;20219;-80
2022/05/30 11:35:13;;;;;;;0.60;0.60;;;;;;;;;;4949969;28;20213;-79
2022/05/30 11:37:59;;;;;;;0.60;0.60;;;;;;;;;;4978791;28;20213;-81
2022/05/30 11:40:43;;;;;;;1.50;0.63;;;;;;;;;;4951237;28;20227;-82
2022/05/30 11:43:45;;;;;;;0.50;0.50;;;;;;;;;;4964083;28;20322;-84
2022/05/30 11:46:51;;;;;;;1.17;1.17;;;;;;;;;;4968874;28;20223;-81
2022/05/30 11:49:28;;;;;;;0.40;0.40;;;;;;;;;;4958870;28;20379;-80
2022/05/30 11:52:12;;;;;;;2.17;0.90;;;;;;;;;;4968159;28;20271;-80
2022/05/30 11:55:20;;;;;;;;;;;;;;;;;;;;;
2022/05/30 11:58:01;;;;;;;0.77;0.77;;;;;;;;;;4973028;28;20201;-78
2022/05/30 12:00:35;;;;;;;1.03;0.80;;;;;;;;;;5001455;28;20209;-80
2022/05/30 12:03:37;;;;;;;0.97;0.80;;;;;;;;;;4972925;28;20212;-79
2022/05/30 12:06:30;;;;;;;0.47;0.47;;;;;;;;;;4970131;28;20216;-79
2022/05/30 12:09:12;;;;;;;0.43;0.43;;;;;;;;;;4969763;28;20209;-78
2022/05/30 12:11:48;;;;;;;1.17;1.10;;;;;;;;;;4974380;28;20223;-80
2022/05/30 12:14:39;;;;;;;2.43;1.10;;;;;;;;;;4968965;28;20209;-80
2022/05/30 12:17:16;;;;;;;1.07;0.93;;;;;;;;;;5005304;28;20261;-80
2022/05/30 12:25:45;;;;;;;2.27;1.03;;;;;;;;;;4939504;28;20217;-81
2022/05/30 12:28:34;;;;;;;0.63;0.50;;;;;;;;;;4968093;28;20228;-81
2022/05/30 12:31:11;;;;;;;0.50;0.50;;;;;;;;;;4962269;28;20212;-82
2022/05/30 12:33:57;;;;;;;2.87;0.87;;;;;;;;;;4975256;28;20207;-82
2022/05/30 12:36:55;;;;;;;1.33;1.00;;;;;;;;;;4968141;28;20329;-83
2022/05/30 12:39:59;;;;;;;0.33;0.33;;;;;;;;;;4964175;28;20216;-82
2022/05/30 12:46:29;;;;;;;0.53;0.50;;;;;;;;;;4957032;28;20217;-83
2022/05/30 12:49:24;;;;;;;1.83;0.67;;;;;;;;;;4978214;28;20235;-82
2022/05/30 12:52:21;;;;;;;0.40;0.40;;;;;;;;;;4996215;28;20212;-83
2022/05/30 12:55:12;;;;;;;1.40;0.60;;;;;;;;;;4968882;28;20210;-83
2022/05/30 12:57:46;;;;;;;0.40;0.40;;;;;;;;;;4963499;28;20197;-83
2022/05/30 13:00:47;;;;;;;0.40;0.40;;;;;;;;;;4997164;28;20205;-82
2022/05/30 13:06:35;;;;;;;0.70;0.70;;;;;;;;;;4985046;28;20216;-83
2022/05/30 13:09:25;;;;;;;0.73;0.73;;;;;;;;;;4962765;28;20220;-81
2022/05/30 13:12:17;;;;;;;0.50;0.50;;;;;;;;;;4961415;28;20298;-83
2022/05/30 13:15:17;;;;;;;;;;;;;;;;;;;;;
2022/05/30 13:18:01;;;;;;;0.80;0.80;;;;;;;;;;4963730;28;20222;-82
2022/05/30 13:20:49;;;;;;;0.40;0.40;;;;;;;;;;4993337;28;20215;-82
2022/05/30 13:23:33;;;;;;;0.50;0.50;;;;;;;;;;4981051;28;20208;-83
2022/05/30 13:26:18;;;;;;;0.50;0.50;;;;;;;;;;4979127;28;20208;-81
2022/05/30 13:28:50;;;;;;;0.80;0.80;;;;;;;;;;4963248;28;20239;-82
2022/05/30 13:34:35;;;;;;;;;;;;;;;;;;;;;
2022/05/30 13:37:08;;;;;;;0.40;0.40;;;;;;;;;;4973095;28;20200;-82
2022/05/30 13:39:48;;;;;;;0.50;0.50;;;;;;;;;;4975776;28;20211;-82
2022/05/30 13:46:37;;;;;;;1.13;0.97;;;;;;;;;;4989384;28;20204;-82
2022/05/30 13:49:51;;;;;;;2.10;1.37;;;;;;;;;;4974227;28;20233;-82
2022/05/30 13:56:20;;;;;;;0.60;0.60;;;;;;;;;;5011920;28;20203;-84
2022/05/30 14:02:24;;;;;;;0.60;0.60;;;;;;;;;;4927073;29;20214;-83
2022/05/30 14:05:20;;;;;;;2.37;0.83;;;;;;;;;;5014824;28;20210;-83
2022/05/30 14:07:59;;;;;;;0.47;0.47;;;;;;;;;;4970992;28;20271;-82
2022/05/30 14:10:39;;;;;;;0.50;0.50;;;;;;;;;;5001872;28;20302;-83
2022/05/30 14:13:52;;;;;;;1.20;0.60;;;;;;;;;;5000859;28;20224;-82
2022/05/30 14:16:56;;;;;;;0.63;0.63;;;;;;;;;;4955714;28;20203;-83
2022/05/30 14:19:35;;;;;;;1.03;0.93;;;;;;;;;;4965891;28;20209;-82
2022/05/30 14:32:46;;;;;;;0.60;0.60;;;;;;;;;;4974469;28;20212;-83
2022/05/30 14:39:54;;;;;;;0.60;0.60;;;;;;;;;;4832389;29;20233;-83
2022/05/30 14:47:16;;;;;;;3.20;0.87;;;;;;;;;;4839255;29;20216;-82
2022/05/30 15:32:43;;;;;;;1.27;1.00;;;;;;;;;;4736485;30;20225;-86
2022/05/30 15:35:13;;;;;;;3.40;1.00;;;;;;;;;;4843101;29;20208;-85
2022/05/30 15:37:41;;;;;;;0.43;0.43;;;;;;;;;;4849951;29;20199;-86
2022/05/30 15:40:11;;;;;;;0.90;0.70;;;;;;;;;;4877079;29;20241;-87
2022/05/30 15:42:40;;;;;;;0.73;0.73;;;;;;;;;;4896782;29;20303;-87
2022/05/30 15:45:13;;;;;;;0.97;0.90;;;;;;;;;;4881297;29;20228;-87
2022/05/30 15:47:43;;;;;;;1.10;0.83;;;;;;;;;;4897002;29;20256;-87
2022/05/30 15:50:12;;;;;;;0.50;0.50;;;;;;;;;;4892395;29;20248;-87
2022/05/30 15:58:13;;;;;;;0.60;0.50;;;;;;;;;;4977298;28;20212;-88
2022/05/30 16:00:42;;;;;;;0.50;0.50;;;;;;;;;;4976428;28;20197;-88
2022/05/30 16:03:12;;;;;;;0.50;0.50;;;;;;;;;;4972611;28;20214;-87
2022/05/30 16:05:41;;;;;;;2.53;1.10;;;;;;;;;;4997729;28;20204;-87
2022/05/30 16:08:13;;;;;;;0.90;0.90;;;;;;;;;;4980502;28;20217;-87
2022/05/30 16:10:42;;;;;;;1.47;0.70;;;;;;;;;;4996955;28;20189;-88
2022/05/30 16:13:10;;;;;;;0.63;0.63;;;;;;;;;;4979975;28;20204;-87
2022/05/30 16:15:39;;;;;;;0.60;0.60;;;;;;;;;;4979784;28;20206;-88
2022/05/30 16:18:08;;;;;;;0.70;0.70;;;;;;;;;;4996938;28;20197;-87
2022/05/30 16:20:37;;;;;;;1.90;0.60;;;;;;;;;;4979504;28;20204;-87
2022/05/30 16:23:07;;;;;;;0.50;0.50;;;;;;;;;;4979906;28;20207;-88
2022/05/30 16:25:35;;;;;;;1.87;0.90;;;;;;;;;;4996644;28;20233;-85
2022/05/30 16:28:05;;;;;;;0.77;0.77;;;;;;;;;;4996872;28;20222;-87
2022/05/30 16:30:33;;;;;;;3.13;0.97;;;;;;;;;;4978832;28;20193;-86
2022/05/30 16:33:02;;;;;;;2.87;0.70;;;;;;;;;;4983324;28;20204;-86
2022/05/30 16:35:31;;;;;;;0.60;0.60;;;;;;;;;;4979320;28;20206;-88
2022/05/30 16:38:00;;;;;;;0.40;0.40;;;;;;;;;;4996266;28;20200;-86
2022/05/30 16:40:30;;;;;;;0.63;0.63;;;;;;;;;;4979289;28;20205;-86
2022/05/30 16:42:59;;;;;;;0.50;0.50;;;;;;;;;;4963578;28;20229;-87
2022/05/30 16:45:29;;;;;;;0.60;0.60;;;;;;;;;;4979141;28;20306;-87
2022/05/30 16:47:59;;;;;;;7.63;0.80;;;;;;;;;;4996109;28;20223;-87
2022/05/30 16:50:27;;;;;;;0.30;0.30;;;;;;;;;;4996198;28;20225;-87
2022/05/30 16:52:56;;;;;;;0.50;0.50;;;;;;;;;;4978556;28;20213;-87
2022/05/30 16:55:26;;;;;;;1.80;0.80;;;;;;;;;;4995867;28;20215;-87
2022/05/30 16:58:02;;;;;;;0.40;0.40;;;;;;;;;;4995970;28;20210;-87
2022/05/30 17:00:31;;;;;;;0.40;0.40;;;;;;;;;;4979054;28;20200;-87
2022/05/30 17:02:59;;;;;;;0.57;0.40;;;;;;;;;;4978337;28;20202;-88
2022/05/30 17:05:28;;;;;;;0.40;0.40;;;;;;;;;;4978127;28;20198;-87
2022/05/30 17:07:57;;;;;;;0.90;0.70;;;;;;;;;;4995795;28;20201;-86
2022/05/30 17:10:27;;;;;;;1.27;0.80;;;;;;;;;;4978338;28;20210;-87
2022/05/30 17:12:55;;;;;;;1.03;0.97;;;;;;;;;;4979073;28;20222;-88
2022/05/30 17:15:24;;;;;;;0.50;0.50;;;;;;;;;;4978466;28;20196;-87
2022/05/30 17:17:53;;;;;;;0.60;0.60;;;;;;;;;;4995371;28;20250;-88
2022/05/30 17:20:26;;;;;;;0.40;0.40;;;;;;;;;;5010596;28;20229;-88
2022/05/30 17:22:54;;;;;;;0.63;0.60;;;;;;;;;;4978113;28;20223;-88
2022/05/30 17:25:25;;;;;;;1.97;0.80;;;;;;;;;;4978026;28;20210;-88
2022/05/30 17:30:41;;;;;;;2.70;2.47;;;;;;;;;;4978551;28;20229;-87
2022/05/30 17:33:10;;;;;;;0.57;0.57;;;;;;;;;;4994933;28;20201;-87
2022/05/30 17:35:38;;;;;;;0.53;0.53;;;;;;;;;;4978090;28;20207;-87